Time;durP1;ratioP1;P1;durP2;ratioP2;P2;SDS_P1;SDS_P2;PMS_P1;PMS_P2;Temp;Humidity;BMP_temperature;BMP_pressure;BME280_temperature;BME280_humidity;BME280_pressure;Samples;Min_cycle;Max_cycle;Signal;HPM_P1;HPM_P2
2023/07/21 00:02:35;;;;;;;2.60;2.30;;;;;;;14.49;77.83;99823.48;131348;1254;108796;-76
2023/07/21 00:05:40;;;;;;;3.50;2.50;;;;;;;14.44;77.78;99818.33;131313;1260;107817;-75
2023/07/21 00:08:46;;;;;;;3.70;2.80;;;;;;;14.38;77.65;99814.80;131331;1254;106567;-77
2023/07/21 00:11:51;;;;;;;8.30;5.80;;;;;;;14.35;77.70;99813.38;131386;1248;108085;-76
2023/07/21 00:14:57;;;;;;;21.70;14.70;;;;;;;14.31;77.49;99809.58;131319;1250;107817;-76
2023/07/21 00:18:03;;;;;;;14.20;7.70;;;;;;;14.26;77.66;99807.90;131336;1261;107465;-76
2023/07/21 00:21:09;;;;;;;9.00;5.90;;;;;;;14.21;77.76;99802.02;131397;1248;107330;-75
2023/07/21 00:24:15;;;;;;;8.90;5.70;;;;;;;14.17;77.67;99801.80;131362;1251;107415;-76
2023/07/21 00:27:20;;;;;;;5.90;4.30;;;;;;;14.08;77.57;99803.55;131323;1250;107447;-75
2023/07/21 00:30:26;;;;;;;4.90;2.80;;;;;;;14.02;77.68;99800.80;131490;1254;107514;-76
2023/07/21 00:33:31;;;;;;;6.60;4.50;;;;;;;13.98;77.50;99798.39;131270;1255;107555;-76
2023/07/21 00:36:37;;;;;;;3.70;2.80;;;;;;;13.93;77.68;99805.47;131016;1254;172196;-76
2023/07/21 00:39:44;;;;;;;5.00;2.80;;;;;;;13.90;77.54;99807.41;131317;1260;108565;-75
2023/07/21 00:42:50;;;;;;;4.10;2.40;;;;;;;13.87;77.46;99805.16;131444;1250;107514;-76
2023/07/21 00:45:56;;;;;;;3.60;2.50;;;;;;;13.81;77.31;99801.34;131274;1253;106668;-76
2023/07/21 00:49:02;;;;;;;5.70;3.00;;;;;;;13.76;77.29;99800.56;131410;1248;107603;-75
2023/07/21 00:52:09;;;;;;;5.50;4.00;;;;;;;13.71;77.47;99796.50;131182;1253;105272;-75
2023/07/21 00:55:15;;;;;;;3.40;2.80;;;;;;;13.65;77.39;99791.88;131363;1257;106564;-75
2023/07/21 00:58:22;;;;;;;3.60;2.20;;;;;;;13.59;77.56;99788.25;131409;1253;107608;-77
2023/07/21 01:01:27;;;;;;;7.10;3.30;;;;;;;13.55;77.19;99789.44;131430;1247;107520;-76
2023/07/21 01:04:34;;;;;;;3.60;2.90;;;;;;;13.52;77.43;99791.24;131134;1248;108819;-76
2023/07/21 01:07:41;;;;;;;2.80;2.60;;;;;;;13.53;77.36;99793.27;131338;1255;106994;-76
2023/07/21 01:10:47;;;;;;;3.40;2.70;;;;;;;13.55;77.17;99796.94;131224;1254;107533;-76
2023/07/21 01:13:55;;;;;;;3.20;2.70;;;;;;;13.55;77.39;99793.80;131470;1251;107592;-76
2023/07/21 01:17:02;;;;;;;3.00;2.60;;;;;;;13.55;77.41;99790.41;131353;1251;106262;-76
2023/07/21 01:20:11;;;;;;;3.70;2.70;;;;;;;13.55;77.40;99795.00;131204;1254;107221;-75
2023/07/21 01:23:26;;;;;;;5.60;2.40;;;;;;;13.51;77.45;99795.46;131368;1252;107536;-75
2023/07/21 01:26:35;;;;;;;3.10;2.10;;;;;;;13.52;77.58;99795.40;131369;1254;107250;-76
2023/07/21 01:29:44;;;;;;;3.10;2.00;;;;;;;13.56;77.72;99793.98;131224;1255;107450;-75
2023/07/21 01:32:52;;;;;;;2.90;2.30;;;;;;;13.61;77.71;99795.01;131277;1254;107554;-76
2023/07/21 01:36:01;;;;;;;3.60;2.50;;;;;;;13.70;77.95;99799.13;131334;1247;107601;-76
2023/07/21 01:39:08;;;;;;;4.10;2.20;;;;;;;13.76;77.87;99800.19;131442;1253;107475;-76
2023/07/21 01:42:14;;;;;;;3.10;2.40;;;;;;;13.79;78.03;99798.38;131330;1248;107517;-76
2023/07/21 01:45:21;;;;;;;3.50;2.50;;;;;;;13.83;78.19;99799.95;131359;1251;107416;-76
2023/07/21 01:48:26;;;;;;;3.40;2.20;;;;;;;13.86;78.20;99802.56;131203;1254;107502;-75
2023/07/21 01:51:33;;;;;;;3.40;2.10;;;;;;;13.88;78.17;99799.77;131202;1254;109260;-76
2023/07/21 01:54:46;;;;;;;3.10;2.20;;;;;;;13.90;78.25;99796.87;131527;1248;107244;-76
2023/07/21 01:57:56;;;;;;;3.00;2.40;;;;;;;13.96;78.49;99797.45;131321;1255;107366;-74
2023/07/21 02:01:05;;;;;;;3.20;2.40;;;;;;;14.02;78.40;99800.63;131242;1251;107618;-75
2023/07/21 02:04:11;;;;;;;3.80;2.60;;;;;;;14.05;78.50;99799.89;131453;1248;106719;-75
2023/07/21 02:07:18;;;;;;;3.10;2.50;;;;;;;14.07;78.41;99799.34;131365;1251;107337;-75
2023/07/21 02:10:24;;;;;;;2.90;2.70;;;;;;;14.06;78.47;99800.23;131386;1250;107283;-75
2023/07/21 02:13:38;;;;;;;3.70;2.30;;;;;;;14.05;78.63;99796.16;131090;1254;108291;-76
2023/07/21 02:16:44;;;;;;;3.60;1.90;;;;;;;14.04;78.70;99793.27;131153;1248;107379;-75
2023/07/21 02:19:49;;;;;;;3.30;2.20;;;;;;;14.04;78.80;99796.80;131336;1254;107534;-75
2023/07/21 02:22:55;;;;;;;4.40;2.20;;;;;;;14.05;78.81;99798.93;131113;1247;107581;-75
2023/07/21 02:26:00;;;;;;;3.60;2.50;;;;;;;14.06;78.78;99801.42;131219;1251;107546;-76
2023/07/21 02:29:06;;;;;;;4.60;2.50;;;;;;;14.04;78.69;99799.45;131140;1253;107532;-76
2023/07/21 02:32:12;;;;;;;2.80;2.30;;;;;;;14.02;78.92;99798.11;131193;1247;108231;-75
2023/07/21 02:35:18;;;;;;;4.40;2.60;;;;;;;14.01;78.92;99795.05;131454;1251;107495;-74
2023/07/21 02:38:25;;;;;;;2.90;2.20;;;;;;;13.99;79.23;99803.69;131389;1247;107474;-75
2023/07/21 02:41:31;;;;;;;2.80;2.10;;;;;;;13.98;79.08;99807.17;131342;1247;107452;-73
2023/07/21 02:44:37;;;;;;;4.10;2.10;;;;;;;13.96;79.00;99804.75;131372;1251;105894;-73
2023/07/21 02:47:42;;;;;;;2.50;1.90;;;;;;;13.99;79.11;99803.35;131354;1250;107541;-73
2023/07/21 02:50:52;;;;;;;2.80;2.10;;;;;;;14.00;79.03;99805.72;131682;1250;107645;-73
2023/07/21 02:53:58;;;;;;;3.50;2.30;;;;;;;13.98;78.95;99805.37;131204;1248;107574;-73
2023/07/21 02:57:04;;;;;;;3.30;2.40;;;;;;;13.93;78.97;99807.90;131340;1248;107519;-73
2023/07/21 03:00:12;;;;;;;4.80;2.10;;;;;;;13.92;78.94;99807.56;131208;1251;107569;-73
2023/07/21 03:03:20;;;;;;;3.30;2.00;;;;;;;13.92;78.97;99802.39;131509;1247;107428;-73
2023/07/21 03:06:31;;;;;;;3.00;1.90;;;;;;;13.92;79.23;99803.89;131199;1250;107517;-74
2023/07/21 03:09:37;;;;;;;3.40;2.20;;;;;;;13.95;79.27;99801.08;131377;1252;107384;-75
2023/07/21 03:12:44;;;;;;;3.40;2.00;;;;;;;14.01;79.41;99798.19;131162;1254;107464;-73
2023/07/21 03:15:57;;;;;;;3.10;2.40;;;;;;;14.05;79.13;99794.85;131254;1254;107505;-73
2023/07/21 03:19:08;;;;;;;2.70;2.20;;;;;;;14.08;79.12;99795.64;131383;1251;108779;-73
2023/07/21 03:22:16;;;;;;;2.80;2.30;;;;;;;14.07;79.18;99799.05;131396;1250;106385;-73
2023/07/21 03:25:22;;;;;;;3.00;2.40;;;;;;;14.07;79.44;99801.80;131247;1255;108765;-76
2023/07/21 03:28:29;;;;;;;2.60;1.90;;;;;;;14.09;79.31;99800.99;131138;1247;107559;-73
2023/07/21 03:31:35;;;;;;;2.50;1.80;;;;;;;14.12;79.17;99800.40;131223;1247;107316;-73
2023/07/21 03:34:50;;;;;;;3.00;2.10;;;;;;;14.19;79.30;99804.27;131337;1251;107846;-73
2023/07/21 03:37:59;;;;;;;3.30;2.00;;;;;;;14.33;79.19;99802.40;131203;1264;107555;-73
2023/07/21 03:41:07;;;;;;;3.40;2.40;;;;;;;14.42;79.20;99801.96;131344;1249;107704;-73
2023/07/21 03:44:13;;;;;;;3.30;2.30;;;;;;;14.53;79.35;99802.94;131244;1252;106646;-73
2023/07/21 03:47:21;;;;;;;3.30;2.10;;;;;;;14.71;79.40;99800.08;131328;1250;107293;-73
2023/07/21 03:50:35;;;;;;;3.30;1.90;;;;;;;14.88;79.43;99800.04;131246;1254;107464;-73
2023/07/21 03:53:41;;;;;;;2.70;1.90;;;;;;;15.05;79.43;99802.23;131290;1253;107356;-73
2023/07/21 03:56:48;;;;;;;2.40;2.00;;;;;;;15.25;79.54;99803.21;131391;1250;107377;-73
2023/07/21 03:59:53;;;;;;;3.30;2.30;;;;;;;15.46;79.47;99799.90;131203;1247;107567;-73
2023/07/21 04:02:59;;;;;;;2.50;2.30;;;;;;;15.65;79.45;99792.67;131269;1254;106625;-73
2023/07/21 04:06:08;;;;;;;2.80;2.40;;;;;;;15.95;79.65;99793.61;131139;1254;107543;-73
2023/07/21 04:09:14;;;;;;;3.30;2.40;;;;;;;16.26;79.62;99797.92;131287;1253;107604;-73
2023/07/21 04:12:20;;;;;;;3.90;1.80;;;;;;;16.38;79.31;99802.56;131383;1251;107394;-73
2023/07/21 04:15:26;;;;;;;3.20;2.20;;;;;;;16.45;79.41;99806.44;131219;1254;107425;-73
2023/07/21 04:18:32;;;;;;;3.40;1.90;;;;;;;16.55;79.45;99804.18;131140;1253;107534;-73
2023/07/21 04:21:37;;;;;;;2.00;1.70;;;;;;;16.63;79.65;99805.70;131211;1254;107534;-73
2023/07/21 04:24:43;;;;;;;3.10;2.00;;;;;;;16.73;79.64;99805.09;131117;1254;107390;-73
2023/07/21 04:27:50;;;;;;;2.60;2.20;;;;;;;16.82;79.60;99800.86;131267;1250;107378;-73
2023/07/21 04:30:58;;;;;;;4.00;2.70;;;;;;;16.94;79.64;99800.59;131373;1248;107473;-73
2023/07/21 04:34:05;;;;;;;2.60;2.30;;;;;;;17.02;79.68;99805.77;131242;1253;107476;-73
2023/07/21 04:37:12;;;;;;;2.90;2.40;;;;;;;17.07;79.56;99807.23;131248;1247;107392;-73
2023/07/21 04:40:20;;;;;;;2.10;1.80;;;;;;;17.12;79.72;99802.96;131345;1252;107461;-73
2023/07/21 04:43:27;;;;;;;2.70;2.50;;;;;;;17.24;79.92;99798.52;131349;1247;107266;-73
2023/07/21 04:46:33;;;;;;;4.60;4.10;;;;;;;17.44;79.98;99802.30;131339;1260;107535;-73
2023/07/21 04:49:40;;;;;;;4.10;3.30;;;;;;;17.69;79.93;99802.52;131349;1251;107418;-73
2023/07/21 04:52:46;;;;;;;3.60;3.00;;;;;;;17.87;79.64;99803.45;131129;1247;107616;-73
2023/07/21 04:55:55;;;;;;;4.70;4.10;;;;;;;17.97;79.51;99805.21;131283;1249;107458;-76
2023/07/21 04:59:00;;;;;;;6.00;3.40;;;;;;;18.03;79.71;99810.00;131224;1253;107569;-76
2023/07/21 05:02:06;;;;;;;3.00;2.50;;;;;;;18.11;79.72;99813.59;131282;1249;107618;-76
2023/07/21 05:05:13;;;;;;;3.20;2.90;;;;;;;18.19;79.49;99815.64;131268;1248;107539;-75
2023/07/21 05:08:26;;;;;;;3.90;2.40;;;;;;;18.28;79.42;99807.66;131319;1252;107430;-77
2023/07/21 05:11:33;;;;;;;2.50;2.30;;;;;;;18.41;79.18;99811.60;131395;1250;107489;-76
2023/07/21 05:14:40;;;;;;;3.20;2.70;;;;;;;18.52;79.45;99817.48;131271;1250;107456;-76
2023/07/21 05:18:10;;;;;;;;;;;;;;;18.55;79.33;99818.92;131385;1251;107499;-75
2023/07/21 05:21:34;;;;;;;2.60;2.20;;;;;;;18.51;79.07;99822.02;131255;1261;108595;-77
2023/07/21 05:24:53;;;;;;;3.00;2.20;;;;;;;18.43;79.10;99822.47;131316;1250;107494;-77
2023/07/21 05:28:00;;;;;;;2.30;2.10;;;;;;;18.39;79.36;99827.44;131328;1251;107513;-74
2023/07/21 05:31:08;;;;;;;3.00;2.20;;;;;;;18.37;79.20;99828.68;131220;1254;107423;-75
2023/07/21 05:34:43;;;;;;;3.30;2.20;;;;;;;18.41;79.18;99824.71;131240;1250;107581;-75
2023/07/21 05:37:49;;;;;;;2.40;2.10;;;;;;;18.51;79.23;99824.35;131344;1253;107628;-75
2023/07/21 05:41:01;;;;;;;3.50;2.20;;;;;;;18.62;79.16;99817.23;131133;1252;107388;-75
2023/07/21 05:44:09;;;;;;;5.30;2.70;;;;;;;18.74;79.11;99814.36;131419;1252;107461;-75
2023/07/21 05:47:18;;;;;;;3.30;3.00;;;;;;;18.87;79.12;99811.73;131296;1250;107417;-75
2023/07/21 05:50:26;;;;;;;3.00;2.70;;;;;;;18.97;78.84;99817.70;131301;1248;107435;-75
2023/07/21 05:53:32;;;;;;;3.40;2.30;;;;;;;19.06;78.83;99816.55;131181;1247;107487;-75
2023/07/21 05:56:41;;;;;;;4.50;2.60;;;;;;;19.18;78.68;99820.25;131366;1254;107396;-75
2023/07/21 05:59:53;;;;;;;3.70;2.70;;;;;;;19.32;78.48;99815.64;131341;1251;107360;-74
2023/07/21 06:02:59;;;;;;;2.80;2.50;;;;;;;19.42;78.25;99817.33;131197;1247;107656;-74
2023/07/21 06:06:05;;;;;;;4.60;3.20;;;;;;;19.51;78.19;99820.77;131243;1254;107616;-75
2023/07/21 06:09:26;;;;;;;3.10;2.80;;;;;;;19.65;78.11;99823.04;131351;1248;107535;-75
2023/07/21 06:13:04;;;;;;;4.30;2.80;;;;;;;19.78;77.92;99824.06;131272;1253;107534;-75
2023/07/21 06:16:22;;;;;;;4.30;2.90;;;;;;;19.92;77.68;99823.78;131371;1256;107630;-75
2023/07/21 06:19:31;;;;;;;3.90;3.00;;;;;;;19.99;77.70;99823.88;131315;1250;106555;-76
2023/07/21 06:22:37;;;;;;;3.30;2.70;;;;;;;20.05;77.45;99820.15;131274;1254;107538;-75
2023/07/21 06:25:44;;;;;;;2.60;2.30;;;;;;;20.11;77.26;99816.36;131308;1250;106510;-75
2023/07/21 06:28:53;;;;;;;3.90;2.20;;;;;;;20.22;76.97;99819.56;131405;1248;107361;-75
2023/07/21 06:32:02;;;;;;;3.00;2.20;;;;;;;20.35;76.31;99817.11;131267;1247;107498;-75
2023/07/21 06:35:16;;;;;;;2.30;2.10;;;;;;;20.49;75.96;99820.80;131451;1252;107333;-75
2023/07/21 06:38:32;;;;;;;2.30;1.90;;;;;;;20.60;75.28;99817.11;131351;1248;107548;-75
2023/07/21 06:42:02;;;;;;;2.70;2.30;;;;;;;20.64;74.71;99815.77;131376;1250;107395;-75
2023/07/21 06:45:33;;;;;;;2.30;2.10;;;;;;;20.67;74.69;99817.36;131337;1247;107377;-75
2023/07/21 06:48:59;;;;;;;2.30;2.10;;;;;;;20.73;74.29;99815.85;131343;1250;107494;-75
2023/07/21 06:52:18;;;;;;;7.50;2.10;;;;;;;20.74;72.83;99815.48;131352;1251;107436;-75
2023/07/21 06:55:24;;;;;;;2.20;2.00;;;;;;;20.66;72.95;99809.64;131267;1250;106515;-76
2023/07/21 06:58:30;;;;;;;2.10;1.90;;;;;;;20.63;71.09;99809.19;131170;1248;107276;-76
2023/07/21 07:01:35;;;;;;;2.80;2.00;;;;;;;20.61;71.90;99814.79;131462;1250;107617;-77
2023/07/21 07:04:41;;;;;;;2.10;1.90;;;;;;;20.58;70.51;99815.56;131406;1250;106351;-75
2023/07/21 07:07:50;;;;;;;3.00;1.90;;;;;;;20.55;71.14;99813.31;131304;1251;107524;-75
2023/07/21 07:10:56;;;;;;;4.10;1.80;;;;;;;20.58;71.43;99813.32;131046;1248;108075;-76
2023/07/21 07:14:01;;;;;;;2.10;1.90;;;;;;;20.63;71.27;99809.06;131336;1252;107506;-75
2023/07/21 07:17:10;;;;;;;2.10;1.90;;;;;;;20.67;71.20;99809.45;131248;1252;107419;-75
2023/07/21 07:20:16;;;;;;;1.70;1.60;;;;;;;20.72;68.88;99813.05;131293;1248;107492;-75
2023/07/21 07:23:22;;;;;;;3.30;1.60;;;;;;;20.64;65.86;99812.83;131313;1251;107476;-75
2023/07/21 07:26:27;;;;;;;2.50;1.60;;;;;;;20.48;66.97;99812.70;131299;1250;107425;-76
2023/07/21 07:29:34;;;;;;;2.00;1.50;;;;;;;20.47;69.27;99811.38;131348;1253;107611;-76
2023/07/21 07:32:40;;;;;;;1.90;1.60;;;;;;;20.59;69.10;99812.52;131301;1252;107566;-75
2023/07/21 07:35:53;;;;;;;1.70;1.40;;;;;;;20.72;68.72;99812.14;131401;1253;107515;-75
2023/07/21 07:38:58;;;;;;;1.90;1.20;;;;;;;20.86;65.19;99811.58;131301;1248;107233;-75
2023/07/21 07:42:04;;;;;;;1.20;1.10;;;;;;;20.91;66.08;99814.29;131292;1250;107241;-75
2023/07/21 07:45:10;;;;;;;3.10;1.10;;;;;;;20.93;65.47;99821.14;131361;1251;107591;-75
2023/07/21 07:48:17;;;;;;;1.60;1.20;;;;;;;20.96;65.99;99819.97;131356;1247;107452;-75
2023/07/21 07:51:22;;;;;;;1.10;0.90;;;;;;;21.05;65.89;99822.84;131376;1250;107658;-75
2023/07/21 07:54:28;;;;;;;1.60;1.10;;;;;;;21.20;66.16;99828.09;131505;1247;107513;-73
2023/07/21 07:57:34;;;;;;;1.20;1.00;;;;;;;21.46;66.21;99829.45;131217;1248;106939;-75
2023/07/21 08:00:41;;;;;;;1.20;1.10;;;;;;;21.63;66.09;99825.62;131438;1248;108107;-75
2023/07/21 08:03:47;;;;;;;1.30;1.20;;;;;;;21.72;65.85;99826.00;131442;1251;107524;-74
2023/07/21 08:06:52;;;;;;;1.50;1.20;;;;;;;21.92;65.51;99825.20;131347;1253;107210;-76
2023/07/21 08:10:00;;;;;;;1.30;1.20;;;;;;;22.05;65.59;99827.63;131349;1252;107500;-76
2023/07/21 08:13:07;;;;;;;1.20;1.10;;;;;;;22.18;64.94;99827.27;131306;1248;107365;-76
2023/07/21 08:16:15;;;;;;;1.30;1.10;;;;;;;22.42;64.16;99827.38;131355;1250;107194;-75
2023/07/21 08:19:20;;;;;;;3.70;1.10;;;;;;;22.61;63.66;99828.30;131418;1252;107626;-76
2023/07/21 08:22:26;;;;;;;1.30;1.10;;;;;;;22.81;63.09;99821.44;131259;1251;107547;-76
2023/07/21 08:25:31;;;;;;;1.40;1.20;;;;;;;23.03;61.55;99819.29;131226;1250;107365;-76
2023/07/21 08:28:36;;;;;;;3.00;1.10;;;;;;;23.17;59.45;99822.73;131317;1250;107433;-76
2023/07/21 08:31:42;;;;;;;1.00;0.90;;;;;;;23.33;61.21;99817.23;131434;1251;107507;-76
2023/07/21 08:34:48;;;;;;;1.70;1.10;;;;;;;23.55;59.00;99819.89;131398;1252;107388;-76
2023/07/21 08:37:53;;;;;;;1.20;1.00;;;;;;;23.35;55.14;99822.48;131333;1247;107683;-76
2023/07/21 08:41:05;;;;;;;3.70;1.10;;;;;;;23.15;58.08;99820.09;131259;1247;107233;-76
2023/07/21 08:44:14;;;;;;;1.60;1.00;;;;;;;23.17;58.16;99817.40;131348;1252;107736;-76
2023/07/21 08:47:20;;;;;;;1.80;1.00;;;;;;;23.10;55.08;99818.91;131248;1252;106626;-76
2023/07/21 08:50:26;;;;;;;1.90;0.90;;;;;;;23.03;57.57;99816.76;131249;1250;107216;-77
2023/07/21 08:53:32;;;;;;;1.10;1.00;;;;;;;23.12;57.68;99814.42;131316;1250;106545;-76
2023/07/21 08:56:37;;;;;;;2.40;1.10;;;;;;;23.23;57.63;99812.16;131315;1250;107465;-76
2023/07/21 08:59:43;;;;;;;1.20;1.10;;;;;;;23.27;57.48;99812.67;131349;1248;107256;-76
2023/07/21 09:02:49;;;;;;;1.00;0.90;;;;;;;23.46;57.17;99810.84;131232;1250;106544;-76
2023/07/21 09:05:57;;;;;;;1.80;0.80;;;;;;;23.68;57.22;99807.23;131341;1250;107488;-76
2023/07/21 09:09:03;;;;;;;1.20;0.90;;;;;;;23.80;55.77;99808.48;131351;1248;108632;-76
2023/07/21 09:12:11;;;;;;;1.90;1.20;;;;;;;23.83;54.56;99806.02;131321;1248;108620;-76
2023/07/21 09:15:21;;;;;;;1.80;0.90;;;;;;;23.78;52.11;99800.59;131340;1251;107441;-76
2023/07/21 09:18:31;;;;;;;1.30;1.00;;;;;;;23.73;50.44;99814.40;131435;1260;106948;-76
2023/07/21 09:21:37;;;;;;;1.10;1.00;;;;;;;23.39;49.07;99816.65;131271;1250;107547;-75
2023/07/21 09:24:51;;;;;;;1.70;1.00;;;;;;;23.00;50.90;99819.98;131283;1250;107648;-76
2023/07/21 09:28:01;;;;;;;1.30;1.20;;;;;;;22.65;50.67;99820.38;131329;1250;107386;-76
2023/07/21 09:31:07;;;;;;;1.30;1.20;;;;;;;22.38;50.25;99818.23;131267;1250;107426;-76
2023/07/21 09:34:13;;;;;;;1.70;1.30;;;;;;;22.23;52.25;99820.98;131440;1252;107479;-76
2023/07/21 09:37:18;;;;;;;1.40;1.30;;;;;;;22.26;52.35;99819.17;131251;1250;107435;-76
2023/07/21 09:40:29;;;;;;;1.30;1.10;;;;;;;22.25;51.91;99819.02;131252;1261;107543;-78
2023/07/21 09:43:35;;;;;;;1.30;1.00;;;;;;;22.26;52.20;99814.11;131334;1250;107522;-76
2023/07/21 09:46:42;;;;;;;1.70;1.00;;;;;;;22.29;52.07;99808.23;131231;1250;107507;-76
2023/07/21 09:49:50;;;;;;;1.30;1.10;;;;;;;22.32;48.89;99808.28;131355;1248;107514;-76
2023/07/21 09:52:56;;;;;;;2.80;1.10;;;;;;;22.33;50.54;99796.98;131284;1252;108524;-76
2023/07/21 09:56:05;;;;;;;2.40;1.00;;;;;;;22.40;47.75;99795.80;131281;1250;107385;-76
2023/07/21 09:59:12;;;;;;;1.40;1.10;;;;;;;22.43;48.74;99788.32;131398;1259;107245;-75
2023/07/21 10:02:18;;;;;;;1.30;1.00;;;;;;;22.51;49.01;99791.13;131265;1252;106556;-75
2023/07/21 10:05:24;;;;;;;1.30;1.10;;;;;;;22.62;49.97;99784.98;131260;1250;107191;-75
2023/07/21 10:08:31;;;;;;;2.00;1.10;;;;;;;22.69;46.78;99780.64;131259;1257;107368;-76
2023/07/21 10:11:37;;;;;;;1.20;1.10;;;;;;;22.78;47.92;99783.14;131375;1250;107487;-75
2023/07/21 10:14:44;;;;;;;1.40;1.10;;;;;;;22.94;48.17;99782.26;131265;1252;107767;-76
2023/07/21 10:18:00;;;;;;;1.10;0.90;;;;;;;23.19;49.30;99782.98;131352;1250;107419;-76
2023/07/21 10:21:06;;;;;;;1.40;1.00;;;;;;;23.45;48.65;99771.77;131351;1257;107244;-76
2023/07/21 10:24:22;;;;;;;1.10;1.00;;;;;;;23.60;47.14;99766.05;131224;1250;107722;-75
2023/07/21 10:27:29;;;;;;;1.10;1.00;;;;;;;23.70;46.39;99762.16;131356;1250;107472;-76
2023/07/21 10:30:35;;;;;;;1.40;1.00;;;;;;;23.80;47.06;99763.80;131193;1251;107467;-76
2023/07/21 10:33:40;;;;;;;1.10;0.90;;;;;;;23.85;47.18;99763.16;131410;1251;107463;-76
2023/07/21 10:36:57;;;;;;;1.10;1.00;;;;;;;24.00;46.95;99757.83;131295;1250;107548;-76
2023/07/21 10:40:09;;;;;;;1.00;0.90;;;;;;;24.21;42.97;99766.86;131341;1250;107547;-75
2023/07/21 10:43:15;;;;;;;0.90;0.70;;;;;;;24.31;41.98;99765.98;131353;1248;107254;-76
2023/07/21 10:46:20;;;;;;;1.00;0.90;;;;;;;24.37;40.96;99763.65;131283;1246;107348;-76
2023/07/21 10:49:26;;;;;;;1.20;0.80;;;;;;;24.36;44.00;99762.06;131227;1247;107585;-77
2023/07/21 10:52:32;;;;;;;1.90;0.90;;;;;;;24.27;42.86;99764.58;131464;1247;107550;-78
2023/07/21 10:55:39;;;;;;;0.90;0.80;;;;;;;24.09;41.59;99762.52;131358;1247;107381;-77
2023/07/21 10:58:45;;;;;;;1.40;1.10;;;;;;;23.83;41.03;99766.81;131348;1250;107566;-77
2023/07/21 11:01:53;;;;;;;5.00;0.90;;;;;;;23.61;42.56;99764.76;131376;1252;107458;-77
2023/07/21 11:05:03;;;;;;;2.70;0.90;;;;;;;23.61;43.94;99760.45;131338;1247;107520;-77
2023/07/21 11:08:13;;;;;;;1.40;0.80;;;;;;;23.69;42.07;99756.75;131366;1251;108683;-77
2023/07/21 11:11:18;;;;;;;1.90;1.00;;;;;;;23.69;41.90;99757.45;131343;1251;107501;-77
2023/07/21 11:14:26;;;;;;;1.10;1.00;;;;;;;23.80;40.77;99755.71;131388;1250;106679;-77
2023/07/21 11:17:33;;;;;;;1.20;0.90;;;;;;;23.89;41.05;99750.50;131349;1252;107532;-77
2023/07/21 11:20:40;;;;;;;1.30;1.00;;;;;;;24.01;42.97;99745.36;131391;1247;108099;-77
2023/07/21 11:23:45;;;;;;;2.30;1.10;;;;;;;24.12;42.10;99744.84;131377;1248;107257;-77
2023/07/21 11:26:51;;;;;;;0.90;0.90;;;;;;;24.10;41.37;99733.64;131323;1254;106471;-77
2023/07/21 11:29:56;;;;;;;1.50;1.10;;;;;;;24.09;40.31;99734.34;131333;1250;107483;-77
2023/07/21 11:33:12;;;;;;;1.40;0.80;;;;;;;24.06;41.81;99734.41;131407;1251;107534;-77
2023/07/21 11:36:19;;;;;;;1.80;0.90;;;;;;;24.00;40.43;99740.22;131283;1250;107363;-77
2023/07/21 11:39:27;;;;;;;1.40;1.10;;;;;;;23.99;39.96;99741.73;131388;1250;107445;-77
2023/07/21 11:42:45;;;;;;;1.10;0.90;;;;;;;24.06;41.18;99735.66;131229;1248;107329;-76
2023/07/21 11:45:51;;;;;;;0.90;0.90;;;;;;;24.12;39.01;99745.97;131310;1252;107249;-75
2023/07/21 11:48:57;;;;;;;1.40;1.00;;;;;;;24.04;39.22;99739.02;131390;1252;107614;-76
2023/07/21 11:52:03;;;;;;;1.20;0.90;;;;;;;23.98;38.41;99732.20;131228;1252;107521;-78
2023/07/21 11:55:10;;;;;;;1.80;0.90;;;;;;;24.05;39.85;99729.82;131391;1252;107381;-76
2023/07/21 11:58:15;;;;;;;1.10;1.00;;;;;;;24.23;39.42;99726.30;131372;1250;107568;-77
2023/07/21 12:01:21;;;;;;;1.80;0.80;;;;;;;24.23;38.25;99721.08;131269;1247;107608;-76
2023/07/21 12:04:27;;;;;;;1.00;0.80;;;;;;;24.20;38.91;99715.76;131169;1250;107282;-77
2023/07/21 12:07:32;;;;;;;1.10;0.80;;;;;;;24.12;39.75;99716.48;131191;1250;107535;-77
2023/07/21 12:10:38;;;;;;;2.20;1.00;;;;;;;24.07;39.52;99719.71;131320;1247;106256;-76
2023/07/21 12:13:43;;;;;;;1.50;0.90;;;;;;;24.01;38.08;99719.58;131340;1250;107570;-76
2023/07/21 12:16:49;;;;;;;1.10;0.90;;;;;;;23.90;38.14;99718.20;131354;1250;107962;-76
2023/07/21 12:19:54;;;;;;;2.00;1.20;;;;;;;23.96;39.59;99715.53;131317;1250;107509;-76
2023/07/21 12:23:00;;;;;;;1.10;0.90;;;;;;;24.08;39.47;99712.14;131369;1250;107546;-76
2023/07/21 12:26:08;;;;;;;1.00;0.90;;;;;;;24.19;39.51;99708.77;131472;1254;107475;-76
2023/07/21 12:29:13;;;;;;;1.20;0.90;;;;;;;24.25;39.00;99705.94;131362;1250;107265;-76
2023/07/21 12:32:19;;;;;;;0.80;0.80;;;;;;;24.23;38.66;99703.56;131333;1253;106451;-76
2023/07/21 12:35:24;;;;;;;1.00;0.90;;;;;;;24.23;38.29;99700.30;131243;1254;120861;-76
2023/07/21 12:38:30;;;;;;;1.40;0.90;;;;;;;24.17;37.32;99697.29;131313;1250;106893;-76
2023/07/21 12:41:35;;;;;;;1.40;1.00;;;;;;;24.21;37.51;99697.07;131315;1250;107597;-76
2023/07/21 12:44:41;;;;;;;1.00;0.90;;;;;;;24.34;37.43;99681.21;131393;1260;107438;-76
2023/07/21 12:47:46;;;;;;;1.30;1.00;;;;;;;24.46;38.55;99679.48;131333;1250;107552;-76
2023/07/21 12:50:52;;;;;;;2.30;0.90;;;;;;;24.54;37.42;99677.73;131310;1250;107573;-77
2023/07/21 12:53:57;;;;;;;1.00;0.90;;;;;;;24.56;37.84;99674.70;131298;1248;107492;-76
2023/07/21 12:57:03;;;;;;;2.80;0.90;;;;;;;24.42;36.37;99670.61;131340;1250;107513;-76
2023/07/21 13:00:11;;;;;;;1.10;0.80;;;;;;;24.41;38.14;99662.47;131352;1251;106827;-76
2023/07/21 13:03:16;;;;;;;1.80;0.90;;;;;;;24.47;37.19;99663.83;131411;1248;106626;-76
2023/07/21 13:06:22;;;;;;;1.20;1.10;;;;;;;24.40;37.87;99663.92;131222;1252;107659;-76
2023/07/21 13:09:29;;;;;;;1.10;0.80;;;;;;;24.40;37.49;99669.92;131346;1250;107606;-76
2023/07/21 13:12:35;;;;;;;1.80;1.00;;;;;;;24.37;36.77;99669.30;131186;1252;105898;-77
2023/07/21 13:15:40;;;;;;;1.30;1.00;;;;;;;24.35;36.29;99667.33;131337;1250;106387;-77
2023/07/21 13:18:46;;;;;;;1.00;0.90;;;;;;;24.31;36.31;99668.97;131365;1261;107934;-77
2023/07/21 13:21:51;;;;;;;1.10;1.00;;;;;;;24.25;36.97;99670.02;131336;1250;107504;-76
2023/07/21 13:24:57;;;;;;;1.80;1.00;;;;;;;24.23;36.72;99663.17;131313;1251;106544;-76
2023/07/21 13:28:03;;;;;;;1.20;0.90;;;;;;;24.23;36.48;99665.25;131289;1252;107350;-76
2023/07/21 13:31:08;;;;;;;1.90;0.90;;;;;;;24.23;35.79;99670.05;131244;1252;107474;-76
2023/07/21 13:34:14;;;;;;;1.30;1.00;;;;;;;24.16;36.13;99669.21;131332;1250;107263;-77
2023/07/21 13:37:22;;;;;;;1.60;0.80;;;;;;;24.09;35.95;99671.37;131318;1248;107216;-77
2023/07/21 13:40:28;;;;;;;2.10;1.00;;;;;;;24.11;36.67;99677.48;131288;1251;106758;-77
2023/07/21 13:43:33;;;;;;;3.30;1.00;;;;;;;24.15;36.25;99678.23;131306;1247;107641;-77
2023/07/21 13:46:39;;;;;;;1.30;1.20;;;;;;;24.18;35.38;99678.23;131303;1253;107545;-77
2023/07/21 13:49:44;;;;;;;1.20;0.90;;;;;;;24.19;35.87;99678.08;131376;1250;106557;-77
2023/07/21 13:52:50;;;;;;;1.10;1.00;;;;;;;24.32;36.62;99682.17;131338;1250;108709;-77
2023/07/21 13:55:55;;;;;;;2.00;1.10;;;;;;;24.44;35.56;99684.20;131336;1253;107533;-77
2023/07/21 13:59:01;;;;;;;2.20;0.90;;;;;;;24.56;35.88;99686.36;131243;1250;107537;-76
2023/07/21 14:02:06;;;;;;;1.20;1.00;;;;;;;24.66;34.90;99684.91;131396;1250;108762;-76
2023/07/21 14:05:12;;;;;;;1.10;1.00;;;;;;;24.78;35.04;99681.84;131351;1248;105788;-76
2023/07/21 14:08:18;;;;;;;1.40;1.10;;;;;;;24.94;35.47;99677.10;131317;1252;107374;-75
2023/07/21 14:11:24;;;;;;;1.00;0.90;;;;;;;25.10;34.99;99675.80;131423;1251;107377;-75
2023/07/21 14:14:30;;;;;;;1.20;1.00;;;;;;;25.14;34.02;99678.50;131327;1251;107482;-76
2023/07/21 14:17:35;;;;;;;1.00;0.80;;;;;;;25.16;34.32;99670.04;131322;1252;107520;-76
2023/07/21 14:20:41;;;;;;;1.00;0.90;;;;;;;25.18;34.36;99662.30;131330;1250;107577;-76
2023/07/21 14:23:46;;;;;;;3.60;1.10;;;;;;;25.28;34.86;99659.39;131266;1250;107327;-75